Time;durP1;ratioP1;P1;durP2;ratioP2;P2;SDS_P1;SDS_P2;PMS_P1;PMS_P2;Temp;Humidity;BMP_temperature;BMP_pressure;BME280_temperature;BME280_humidity;BME280_pressure;Samples;Min_cycle;Max_cycle;Signal;HPM_P1;HPM_P2
2023/01/20 00:01:26;;;;;;;7.28;3.78;;;-2.10;99.90;;;;;;10208263;23;20012;-78
2023/01/20 00:05:26;;;;;;;8.60;3.95;;;-2.10;99.90;;;;;;10208008;23;20096;-79
2023/01/20 00:09:27;;;;;;;5.88;3.22;;;-2.10;99.90;;;;;;10208090;23;20005;-78
2023/01/20 00:13:27;;;;;;;7.65;3.67;;;-1.50;99.90;;;;;;10208506;23;20487;-78
2023/01/20 00:17:28;;;;;;;8.73;3.97;;;-1.30;99.90;;;;;;10208621;23;20019;-79
2023/01/20 00:21:28;;;;;;;11.95;3.90;;;-1.70;99.90;;;;;;10208005;23;20395;-79
2023/01/20 00:25:29;;;;;;;6.32;3.47;;;-1.70;99.90;;;;;;10234555;23;19994;-78
2023/01/20 00:29:29;;;;;;;8.13;3.47;;;-1.30;99.90;;;;;;10208399;23;20032;-79
2023/01/20 00:33:30;;;;;;;14.15;4.63;;;-1.70;99.90;;;;;;10208437;23;20100;-79
2023/01/20 00:37:30;;;;;;;5.82;2.85;;;-1.90;99.90;;;;;;10234976;23;20013;-79
2023/01/20 00:41:31;;;;;;;6.25;3.55;;;-2.00;99.90;;;;;;10208026;23;20100;-79
2023/01/20 00:45:32;;;;;;;6.88;3.55;;;-2.00;99.90;;;;;;10210234;23;20006;-79
2023/01/20 00:49:32;;;;;;;7.80;3.60;;;-2.10;99.90;;;;;;10211455;23;20443;-79
2023/01/20 00:53:33;;;;;;;6.43;3.58;;;-2.10;99.90;;;;;;10211914;23;20013;-79
2023/01/20 00:57:33;;;;;;;5.63;3.50;;;-2.20;99.90;;;;;;10211262;23;20447;-78
2023/01/20 01:01:34;;;;;;;9.85;4.20;;;-2.00;99.90;;;;;;10210570;23;20056;-79
2023/01/20 01:05:35;;;;;;;11.85;3.72;;;-2.20;99.90;;;;;;10210791;23;20080;-79
2023/01/20 01:09:36;;;;;;;7.55;3.90;;;-2.30;99.90;;;;;;10236858;23;20001;-79
2023/01/20 01:13:37;;;;;;;7.88;3.58;;;-2.30;99.90;;;;;;10210799;23;20027;-79
2023/01/20 01:17:38;;;;;;;7.13;3.67;;;-2.30;99.90;;;;;;10211131;23;20016;-77
2023/01/20 01:21:38;;;;;;;10.48;3.58;;;-2.20;99.90;;;;;;10210912;23;20104;-79
2023/01/20 01:25:39;;;;;;;6.88;3.72;;;-2.20;99.90;;;;;;10237345;23;20008;-79
2023/01/20 01:29:40;;;;;;;8.93;3.88;;;-2.30;99.90;;;;;;10211098;23;20339;-78
2023/01/20 01:33:40;;;;;;;4.95;2.65;;;-2.30;99.90;;;;;;10211160;23;20009;-79
2023/01/20 01:37:41;;;;;;;6.28;4.05;;;-2.40;99.90;;;;;;10237514;23;20005;-78
2023/01/20 01:41:41;;;;;;;7.88;3.45;;;-2.40;99.90;;;;;;10210319;23;20414;-79
2023/01/20 01:45:42;;;;;;;8.40;3.97;;;-2.30;99.90;;;;;;10210961;23;20317;-79
2023/01/20 01:49:44;;;;;;;10.10;4.65;;;-2.30;99.90;;;;;;10210393;23;20462;-79
2023/01/20 01:54:10;;;;;;;10.57;3.83;;;-2.40;99.90;;;;;;10209678;23;20013;-79
2023/01/20 01:58:14;;;;;;;6.28;3.22;;;-2.30;99.90;;;;;;10219668;23;20005;-78
2023/01/20 02:02:14;;;;;;;7.05;3.58;;;-2.30;99.90;;;;;;10244348;23;20005;-78
2023/01/20 02:06:17;;;;;;;6.82;4.03;;;-2.30;99.90;;;;;;10217252;23;20037;-78
2023/01/20 02:10:17;;;;;;;7.60;3.70;;;-2.30;99.90;;;;;;10211028;23;20340;-79
2023/01/20 02:14:30;;;;;;;7.35;3.50;;;-2.40;99.90;;;;;;10210885;23;20016;-78
2023/01/20 02:18:45;;;;;;;4.90;2.97;;;-2.40;99.90;;;;;;10211592;23;20040;-79
2023/01/20 02:23:31;;;;;;;9.90;3.03;;;-2.40;99.90;;;;;;10211137;23;20395;-79
2023/01/20 02:27:56;;;;;;;5.90;3.08;;;-2.40;99.90;;;;;;10210960;23;20072;-79
2023/01/20 02:32:13;;;;;;;7.40;3.72;;;-2.40;99.90;;;;;;10236656;23;20001;-79
2023/01/20 02:36:25;;;;;;;5.55;3.22;;;-2.40;99.90;;;;;;10211011;23;20012;-79
2023/01/20 02:40:58;;;;;;;6.45;3.53;;;-2.30;99.90;;;;;;10211140;23;20008;-79
2023/01/20 02:45:23;;;;;;;7.72;3.30;;;-2.30;99.90;;;;;;10189525;23;20017;-78
2023/01/20 02:49:40;;;;;;;6.63;3.35;;;-2.40;99.90;;;;;;10210185;23;20510;-79
2023/01/20 02:53:51;;;;;;;7.32;3.72;;;-2.30;99.90;;;;;;10236466;23;20015;-79
2023/01/20 02:57:59;;;;;;;5.00;3.35;;;-2.10;99.90;;;;;;10211368;23;20439;-79
2023/01/20 03:02:07;;;;;;;5.75;3.53;;;-1.80;99.90;;;;;;10210296;23;20418;-77
2023/01/20 03:06:16;;;;;;;7.70;3.63;;;-2.00;99.90;;;;;;10208924;23;20001;-79
2023/01/20 03:10:20;;;;;;;7.05;3.42;;;-2.20;99.90;;;;;;10209960;23;20010;-79
2023/01/20 03:14:21;;;;;;;5.85;3.42;;;-2.30;99.90;;;;;;10209842;23;20024;-79
2023/01/20 03:18:22;;;;;;;8.88;4.18;;;-2.30;99.90;;;;;;10210351;23;20008;-77
2023/01/20 03:22:22;;;;;;;7.00;3.72;;;-2.30;99.90;;;;;;10210513;23;20084;-79
2023/01/20 03:26:23;;;;;;;7.57;3.70;;;-2.20;99.90;;;;;;10236258;23;19997;-78
2023/01/20 03:30:24;;;;;;;8.88;3.92;;;-2.30;99.90;;;;;;10209735;23;20009;-79
2023/01/20 03:34:26;;;;;;;9.43;4.32;;;-2.30;99.90;;;;;;10209653;23;20024;-79
2023/01/20 03:38:27;;;;;;;11.32;6.38;;;-2.20;99.90;;;;;;10209784;23;20009;-78
2023/01/20 03:42:33;;;;;;;15.65;6.30;;;-2.20;99.90;;;;;;10210239;23;20016;-79
2023/01/20 03:47:01;;;;;;;7.10;4.05;;;-2.10;99.90;;;;;;10209348;23;20214;-78
2023/01/20 03:51:16;;;;;;;5.15;3.30;;;-1.90;99.90;;;;;;10209173;23;20511;-78
2023/01/20 03:55:38;;;;;;;6.55;4.00;;;-1.80;99.90;;;;;;10236088;23;20032;-79
2023/01/20 03:59:42;;;;;;;7.28;4.05;;;-1.80;99.90;;;;;;10210092;23;20001;-79
2023/01/20 04:03:46;;;;;;;8.45;3.75;;;-2.00;99.90;;;;;;10209029;23;20005;-79
2023/01/20 04:07:48;;;;;;;8.85;3.95;;;-2.30;99.90;;;;;;10209755;23;20009;-79
2023/01/20 04:11:50;;;;;;;6.63;3.70;;;-2.50;99.90;;;;;;10209275;23;20009;-79
2023/01/20 04:15:51;;;;;;;13.43;4.55;;;-2.60;99.90;;;;;;10208424;23;20017;-79
2023/01/20 04:19:51;;;;;;;9.60;4.55;;;-2.60;99.90;;;;;;10211527;23;20093;-79
2023/01/20 04:24:14;;;;;;;7.53;4.25;;;-2.50;99.90;;;;;;10212759;23;20005;-78
2023/01/20 04:28:15;;;;;;;14.85;5.07;;;-2.50;99.90;;;;;;10238199;23;20032;-78
2023/01/20 04:32:15;;;;;;;8.88;4.40;;;-2.60;99.90;;;;;;10211947;23;20520;-79
2023/01/20 04:36:16;;;;;;;5.13;3.03;;;-2.70;99.90;;;;;;10211892;23;20063;-78
2023/01/20 04:40:16;;;;;;;7.93;3.75;;;-2.70;99.90;;;;;;10211147;23;20555;-79
2023/01/20 04:44:17;;;;;;;8.40;4.72;;;-2.70;99.90;;;;;;10209484;23;20009;-79
2023/01/20 04:48:17;;;;;;;9.13;4.43;;;-2.60;99.90;;;;;;10207357;23;19997;-79
2023/01/20 04:52:18;;;;;;;7.38;3.88;;;-2.50;99.90;;;;;;10207429;23;20007;-79
2023/01/20 04:56:18;;;;;;;8.93;3.90;;;-2.40;99.90;;;;;;10210035;23;20005;-78
2023/01/20 05:00:19;;;;;;;10.35;4.25;;;-2.20;99.90;;;;;;10210772;23;20009;-79
2023/01/20 05:04:20;;;;;;;8.88;3.80;;;-1.70;99.90;;;;;;10211779;23;20802;-79
2023/01/20 05:08:20;;;;;;;6.82;3.60;;;-1.50;99.90;;;;;;10238612;23;20008;-79
2023/01/20 05:12:21;;;;;;;7.88;3.67;;;-1.30;99.90;;;;;;10239362;23;20009;-79
2023/01/20 05:16:24;;;;;;;7.55;3.47;;;-1.20;99.90;;;;;;10210482;23;20013;-78
2023/01/20 05:20:25;;;;;;;8.85;4.82;;;-1.40;99.90;;;;;;10209177;23;20328;-78
2023/01/20 05:24:25;;;;;;;5.75;3.63;;;-1.40;99.90;;;;;;10212374;23;20088;-79
2023/01/20 05:28:26;;;;;;;9.05;4.07;;;-1.40;99.90;;;;;;10235176;23;20367;-78
2023/01/20 05:32:26;;;;;;;8.48;3.72;;;-1.40;99.90;;;;;;10234166;23;20001;-79
2023/01/20 05:36:27;;;;;;;7.35;3.92;;;-1.50;99.90;;;;;;10234622;23;19997;-79
2023/01/20 05:40:27;;;;;;;8.88;4.18;;;-1.60;99.90;;;;;;10235026;23;20008;-77
2023/01/20 05:44:28;;;;;;;14.55;5.00;;;-1.60;99.90;;;;;;10208044;23;20009;-79
2023/01/20 05:48:28;;;;;;;10.07;4.60;;;-1.70;99.90;;;;;;10209190;23;20001;-79
2023/01/20 05:52:29;;;;;;;8.90;4.20;;;-1.50;99.90;;;;;;10234538;23;20016;-78
2023/01/20 05:56:29;;;;;;;15.27;6.68;;;-1.50;99.90;;;;;;10207847;23;20009;-78
2023/01/20 06:00:30;;;;;;;11.38;4.53;;;-1.60;99.90;;;;;;10209235;23;20064;-78
2023/01/20 06:04:31;;;;;;;9.55;5.00;;;-1.70;99.90;;;;;;10208170;23;20451;-79
2023/01/20 06:08:32;;;;;;;9.25;5.47;;;-1.60;99.90;;;;;;10208511;23;20052;-79
2023/01/20 06:12:32;;;;;;;11.35;5.00;;;-1.60;99.90;;;;;;10208874;23;20008;-79
2023/01/20 06:16:33;;;;;;;12.95;5.95;;;-1.40;99.90;;;;;;10207628;23;20008;-79
2023/01/20 06:20:33;;;;;;;10.05;3.92;;;-1.30;99.90;;;;;;10234903;23;20348;-79
2023/01/20 06:24:34;;;;;;;6.95;3.97;;;-1.10;99.90;;;;;;10233705;23;20088;-78
2023/01/20 06:28:34;;;;;;;9.25;5.07;;;-1.10;99.90;;;;;;10207986;23;20196;-79
2023/01/20 06:32:35;;;;;;;12.55;5.13;;;-1.00;99.90;;;;;;10207927;23;20016;-78
2023/01/20 06:36:35;;;;;;;8.68;4.03;;;-1.30;99.90;;;;;;10207139;23;20005;-78
2023/01/20 06:40:36;;;;;;;16.73;4.95;;;-1.20;99.90;;;;;;10207553;23;20096;-79
2023/01/20 06:44:36;;;;;;;13.10;4.43;;;-1.40;99.90;;;;;;10207409;23;20009;-78
2023/01/20 06:48:37;;;;;;;11.90;4.07;;;-1.30;99.90;;;;;;10207620;23;20051;-78
2023/01/20 06:52:38;;;;;;;12.40;5.43;;;-1.10;99.90;;;;;;10234055;23;20001;-77
2023/01/20 06:56:38;;;;;;;9.18;4.82;;;-1.20;99.90;;;;;;10233109;23;20311;-79
2023/01/20 07:00:39;;;;;;;5.25;3.53;;;-1.30;99.90;;;;;;10232871;23;20001;-79
2023/01/20 07:04:41;;;;;;;10.02;5.00;;;-1.50;99.90;;;;;;10232742;23;20012;-79
2023/01/20 07:08:43;;;;;;;9.02;4.65;;;-1.60;99.90;;;;;;10207206;23;20009;-79
2023/01/20 07:12:44;;;;;;;11.35;4.65;;;-1.90;99.90;;;;;;10207309;23;20079;-79
2023/01/20 07:16:45;;;;;;;10.73;6.05;;;-1.80;99.90;;;;;;10207875;23;20001;-79
2023/01/20 07:20:46;;;;;;;12.23;5.55;;;-1.60;99.90;;;;;;10208102;23;20016;-78
2023/01/20 07:24:46;;;;;;;9.48;4.68;;;-1.60;99.90;;;;;;10208690;23;20233;-79
2023/01/20 07:28:47;;;;;;;9.63;5.03;;;-1.50;99.90;;;;;;10207043;23;20029;-78
2023/01/20 07:32:48;;;;;;;8.73;5.10;;;-1.20;99.90;;;;;;10207011;23;20009;-79
2023/01/20 07:36:52;;;;;;;14.07;5.70;;;-1.10;99.90;;;;;;10206776;23;20036;-79
2023/01/20 07:40:55;;;;;;;15.30;5.45;;;-1.30;99.90;;;;;;10233034;23;20056;-79
2023/01/20 07:44:56;;;;;;;10.02;5.68;;;-1.20;99.90;;;;;;10206759;23;20033;-78
2023/01/20 07:48:56;;;;;;;13.35;5.70;;;-1.00;99.90;;;;;;10207517;23;20036;-79
2023/01/20 07:52:57;;;;;;;11.05;4.97;;;-0.90;99.90;;;;;;10233963;23;20004;-79
2023/01/20 07:56:57;;;;;;;9.32;5.70;;;-1.10;99.90;;;;;;10204934;23;20016;-78
2023/01/20 08:01:08;;;;;;;9.80;4.45;;;-0.90;99.90;;;;;;10204290;23;20440;-78
2023/01/20 08:05:09;;;;;;;26.98;4.60;;;-0.90;99.90;;;;;;10204612;23;20009;-78
2023/01/20 08:09:11;;;;;;;12.05;5.53;;;-0.50;99.90;;;;;;10204261;23;20008;-78
2023/01/20 08:13:11;;;;;;;9.88;5.15;;;-0.40;99.90;;;;;;10230591;23;20013;-78
2023/01/20 08:17:12;;;;;;;11.38;5.15;;;-0.60;99.90;;;;;;10231131;23;20005;-78
2023/01/20 08:21:17;;;;;;;11.70;5.13;;;-0.40;99.90;;;;;;10204263;23;20080;-79
2023/01/20 08:25:18;;;;;;;9.95;5.00;;;-0.60;99.90;;;;;;10204479;23;20009;-79
2023/01/20 08:29:19;;;;;;;10.73;5.22;;;-0.70;99.90;;;;;;10204257;23;20080;-78
2023/01/20 08:33:19;;;;;;;9.55;4.82;;;-0.50;99.90;;;;;;10203902;23;20330;-79
2023/01/20 08:37:20;;;;;;;10.07;5.38;;;-0.50;99.90;;;;;;10231504;23;20009;-78
2023/01/20 08:41:24;;;;;;;9.48;5.22;;;-0.30;99.90;;;;;;10204027;23;20012;-78
2023/01/20 08:45:25;;;;;;;12.38;5.90;;;-0.40;99.90;;;;;;10204275;23;20007;-78
2023/01/20 08:49:26;;;;;;;8.35;3.60;;;-0.30;99.90;;;;;;10231728;23;20001;-79
2023/01/20 08:53:26;;;;;;;7.63;4.18;;;-0.20;99.90;;;;;;10230270;23;20012;-78
2023/01/20 08:57:27;;;;;;;9.18;5.60;;;-0.10;99.90;;;;;;10230982;23;20142;-78
2023/01/20 09:01:29;;;;;;;6.80;3.88;;;0.10;99.90;;;;;;10229997;23;20012;-78
2023/01/20 09:05:30;;;;;;;7.65;3.50;;;0.30;99.90;;;;;;10204414;23;20013;-79
2023/01/20 09:09:31;;;;;;;6.93;4.10;;;0.30;99.90;;;;;;10207650;23;20001;-78
2023/01/20 09:13:31;;;;;;;10.93;5.18;;;0.20;99.90;;;;;;10206479;23;20020;-78
2023/01/20 09:17:34;;;;;;;12.02;5.15;;;0.30;99.90;;;;;;10207451;23;20013;-78
2023/01/20 09:21:35;;;;;;;14.90;5.93;;;0.50;99.90;;;;;;10207003;23;20071;-78
2023/01/20 09:25:35;;;;;;;11.02;5.38;;;0.50;99.90;;;;;;10206955;23;20005;-78
2023/01/20 09:29:36;;;;;;;7.72;4.85;;;0.60;99.90;;;;;;10232903;23;20376;-79
2023/01/20 09:33:38;;;;;;;11.05;5.90;;;0.80;99.90;;;;;;10206357;23;20005;-79
2023/01/20 09:46:39;;;;;;;12.13;5.20;;;1.10;99.90;;;;;;10232893;23;20088;-78
2023/01/20 09:55:23;;;;;;;9.43;4.63;;;1.40;99.90;;;;;;10232942;23;20096;-79
2023/01/20 09:59:30;;;;;;;9.77;5.05;;;1.50;99.90;;;;;;10206144;23;20032;-79
2023/01/20 10:03:36;;;;;;;8.70;4.22;;;1.50;99.90;;;;;;10205713;23;20009;-78
2023/01/20 10:07:50;;;;;;;9.43;5.13;;;1.40;99.90;;;;;;10233094;23;19997;-78
2023/01/20 10:11:55;;;;;;;12.35;6.53;;;1.30;99.90;;;;;;10206237;23;20333;-79
2023/01/20 10:15:56;;;;;;;14.00;5.85;;;1.20;99.90;;;;;;10205830;23;20055;-79
2023/01/20 10:20:11;;;;;;;8.18;4.70;;;1.30;99.90;;;;;;10230712;23;20005;-79
2023/01/20 10:24:17;;;;;;;10.30;5.28;;;1.20;99.90;;;;;;10232251;23;20025;-79
2023/01/20 10:28:25;;;;;;;8.43;4.90;;;1.00;99.90;;;;;;10206225;23;20118;-79
2023/01/20 10:32:32;;;;;;;9.55;5.15;;;1.20;99.90;;;;;;10205837;23;20009;-79
2023/01/20 10:36:33;;;;;;;11.35;4.57;;;1.20;99.90;;;;;;10231442;23;20005;-78
2023/01/20 10:40:45;;;;;;;10.15;4.88;;;1.30;99.90;;;;;;10205172;23;20156;-79
2023/01/20 10:44:48;;;;;;;9.60;4.93;;;1.20;99.90;;;;;;10205343;23;20032;-79
2023/01/20 10:49:20;;;;;;;12.98;5.72;;;1.40;99.90;;;;;;10231787;23;20029;-79
2023/01/20 10:53:32;;;;;;;7.65;4.07;;;1.20;99.90;;;;;;10205423;23;20005;-79
2023/01/20 10:57:33;;;;;;;6.07;3.53;;;1.20;99.90;;;;;;10204931;23;20020;-79
2023/01/20 11:01:35;;;;;;;6.97;3.92;;;1.30;99.90;;;;;;10205682;23;20452;-79
2023/01/20 11:05:37;;;;;;;9.45;5.50;;;1.20;99.90;;;;;;10205099;23;20001;-78
2023/01/20 11:09:37;;;;;;;9.50;5.30;;;1.10;99.90;;;;;;10205102;23;20001;-78
2023/01/20 11:13:38;;;;;;;9.45;4.50;;;1.10;99.90;;;;;;10204832;23;20080;-79
2023/01/20 11:17:38;;;;;;;9.98;4.90;;;1.10;99.90;;;;;;10205355;23;20259;-79
2023/01/20 11:21:40;;;;;;;7.80;4.32;;;0.80;99.90;;;;;;10205434;23;20005;-79
2023/01/20 11:25:40;;;;;;;7.85;4.75;;;1.10;99.90;;;;;;10231690;23;19997;-79
2023/01/20 11:29:48;;;;;;;10.98;5.53;;;1.10;99.90;;;;;;10204256;23;20032;-78
2023/01/20 11:34:00;;;;;;;9.13;5.13;;;1.00;99.90;;;;;;10230379;23;20001;-79
2023/01/20 11:38:21;;;;;;;7.90;4.20;;;1.00;99.90;;;;;;10231394;23;20077;-80
2023/01/20 11:42:28;;;;;;;6.07;3.70;;;1.20;99.90;;;;;;10233529;23;20056;-78
2023/01/20 11:46:31;;;;;;;6.78;3.90;;;1.30;99.90;;;;;;10207761;23;20036;-79
2023/01/20 11:50:35;;;;;;;10.00;4.53;;;1.60;99.90;;;;;;10207640;23;20470;-79
2023/01/20 11:54:35;;;;;;;9.52;5.07;;;1.70;99.90;;;;;;10208391;23;20009;-79
2023/01/20 11:58:49;;;;;;;8.93;5.57;;;1.90;99.90;;;;;;10234297;23;20001;-79
2023/01/20 12:03:57;;;;;;;7.68;4.68;;;1.80;99.90;;;;;;10207686;23;20016;-79
2023/01/20 12:07:59;;;;;;;12.35;4.88;;;1.80;99.90;;;;;;10044827;23;20009;-79
2023/01/20 12:12:38;;;;;;;10.23;5.00;;;1.70;99.90;;;;;;10204660;23;20194;-79
2023/01/20 12:16:39;;;;;;;9.30;4.95;;;1.50;99.90;;;;;;10185136;23;20040;-79
2023/01/20 12:21:00;;;;;;;8.90;5.15;;;1.70;99.90;;;;;;10204044;23;20355;-80
2023/01/20 12:25:20;;;;;;;11.27;4.43;;;1.70;99.90;;;;;;10204029;23;20009;-79
2023/01/20 12:29:43;;;;;;;10.20;5.93;;;1.70;99.90;;;;;;10230477;23;20097;-79
2023/01/20 12:33:47;;;;;;;7.68;4.22;;;1.70;99.90;;;;;;10204217;23;20009;-79
2023/01/20 12:38:05;;;;;;;13.25;5.47;;;1.80;99.90;;;;;;10204641;23;20395;-79
2023/01/20 12:42:09;;;;;;;11.88;6.63;;;2.00;99.90;;;;;;10205989;23;20020;-79
2023/01/20 12:46:34;;;;;;;8.30;5.13;;;2.20;99.90;;;;;;10207492;23;20005;-79
2023/01/20 12:50:56;;;;;;;12.38;5.88;;;2.70;99.90;;;;;;10206809;23;20222;-78
2023/01/20 12:55:22;;;;;;;9.07;4.72;;;2.90;99.90;;;;;;10233706;23;20380;-79
2023/01/20 12:59:56;;;;;;;9.48;5.22;;;3.00;99.90;;;;;;10206786;23;20009;-78
2023/01/20 13:04:11;;;;;;;9.43;5.13;;;3.10;99.90;;;;;;10206235;23;20016;-78
2023/01/20 13:08:39;;;;;;;7.53;4.57;;;3.10;99.90;;;;;;10207083;23;19997;-79
2023/01/20 13:13:17;;;;;;;7.47;4.82;;;2.90;99.90;;;;;;10207036;23;20017;-78
2023/01/20 13:17:45;;;;;;;11.02;4.38;;;2.80;99.90;;;;;;10206978;23;20009;-79
2023/01/20 13:21:49;;;;;;;7.45;3.42;;;2.90;99.90;;;;;;10233883;23;20011;-79
2023/01/20 13:25:51;;;;;;;9.45;3.90;;;3.00;99.90;;;;;;10206432;23;20001;-79
2023/01/20 13:29:55;;;;;;;7.60;4.22;;;3.10;99.90;;;;;;10233009;23;20013;-79
2023/01/20 13:34:21;;;;;;;10.38;5.05;;;3.10;99.90;;;;;;10232531;23;20001;-78
2023/01/20 13:38:29;;;;;;;7.78;4.18;;;3.10;99.90;;;;;;10205849;23;20013;-78
2023/01/20 13:42:36;;;;;;;6.82;4.10;;;2.90;99.90;;;;;;10206824;23;20013;-78
2023/01/20 13:46:42;;;;;;;6.60;4.13;;;2.80;99.90;;;;;;10206419;23;20012;-78
2023/01/20 13:50:42;;;;;;;8.88;5.10;;;2.80;99.90;;;;;;10205923;23;20013;-78
2023/01/20 13:54:45;;;;;;;7.47;4.78;;;2.80;99.90;;;;;;10206146;23;20355;-78
2023/01/20 13:58:45;;;;;;;8.80;4.32;;;2.90;99.90;;;;;;10206935;23;20016;-79
2023/01/20 14:02:48;;;;;;;10.43;4.55;;;3.10;99.90;;;;;;10209471;23;20012;-77
2023/01/20 14:06:51;;;;;;;8.43;4.60;;;3.00;99.90;;;;;;10208416;23;20040;-78
2023/01/20 14:11:03;;;;;;;7.18;3.28;;;2.80;99.90;;;;;;10210103;23;20056;-78
2023/01/20 14:15:04;;;;;;;5.75;3.53;;;2.80;99.90;;;;;;10234571;23;20013;-79
2023/01/20 14:19:22;;;;;;;8.07;3.92;;;2.70;99.90;;;;;;10208714;23;20471;-78
2023/01/20 14:23:33;;;;;;;8.30;4.32;;;2.70;99.90;;;;;;10235170;23;20024;-79
2023/01/20 14:27:36;;;;;;;10.43;4.93;;;2.40;99.90;;;;;;10236038;23;20246;-79
2023/01/20 14:31:41;;;;;;;8.90;4.40;;;2.40;99.90;;;;;;10208550;23;20407;-79
2023/01/20 14:35:43;;;;;;;10.02;4.88;;;2.30;99.90;;;;;;10208285;23;20002;-79
2023/01/20 14:39:48;;;;;;;9.02;4.35;;;2.30;99.90;;;;;;10208706;23;20016;-79
2023/01/20 14:43:50;;;;;;;6.75;3.17;;;2.30;99.90;;;;;;10234993;23;20021;-79
2023/01/20 14:47:51;;;;;;;4.57;3.03;;;2.30;99.90;;;;;;10236217;23;20080;-79
2023/01/20 14:51:52;;;;;;;9.95;4.45;;;2.10;99.90;;;;;;10237572;23;20191;-79
2023/01/20 14:56:06;;;;;;;6.45;3.75;;;2.20;99.90;;;;;;10237100;23;20483;-79
2023/01/20 15:00:32;;;;;;;10.25;4.07;;;2.10;99.90;;;;;;10210343;23;20009;-79
2023/01/20 15:04:35;;;;;;;7.60;4.20;;;2.00;99.90;;;;;;10209917;23;20400;-79
2023/01/20 15:08:36;;;;;;;6.30;3.55;;;1.90;99.90;;;;;;10211096;23;20324;-79
2023/01/20 15:12:45;;;;;;;10.23;4.85;;;1.80;99.90;;;;;;10209833;23;20172;-78
2023/01/20 15:16:48;;;;;;;8.27;4.20;;;1.80;99.90;;;;;;10210700;23;20099;-79
2023/01/20 15:20:50;;;;;;;11.35;4.13;;;1.70;99.90;;;;;;10210154;23;20023;-79
2023/01/20 15:24:51;;;;;;;8.05;3.70;;;1.60;99.90;;;;;;10211502;23;20009;-79
2023/01/20 15:28:52;;;;;;;3.45;2.10;;;1.50;99.90;;;;;;10212938;23;20092;-79
2023/01/20 15:32:54;;;;;;;4.40;2.00;;;1.50;99.90;;;;;;10212074;23;20009;-79
2023/01/20 15:36:55;;;;;;;4.00;2.20;;;1.40;99.90;;;;;;10211723;23;20013;-79
2023/01/20 15:40:56;;;;;;;3.58;1.95;;;1.30;99.90;;;;;;10239893;23;20083;-80
2023/01/20 15:44:56;;;;;;;4.05;2.28;;;1.10;99.90;;;;;;10212859;23;20008;-80
2023/01/20 15:48:57;;;;;;;3.30;1.50;;;0.90;99.90;;;;;;10241206;23;20415;-80
2023/01/20 15:52:58;;;;;;;3.35;2.30;;;0.80;99.90;;;;;;10242061;23;20023;-80
2023/01/20 15:56:58;;;;;;;4.30;2.50;;;0.60;99.90;;;;;;10216545;23;20009;-79
2023/01/20 16:00:59;;;;;;;4.57;2.90;;;1.20;99.90;;;;;;10269909;23;20007;-79
2023/01/20 16:05:00;;;;;;;5.88;3.05;;;0.90;99.90;;;;;;10206088;23;20101;-79
2023/01/20 16:09:12;;;;;;;7.65;3.75;;;0.50;99.90;;;;;;10206627;23;20005;-79
2023/01/20 16:13:13;;;;;;;6.00;3.28;;;0.20;99.90;;;;;;10206233;23;20032;-79
2023/01/20 16:17:16;;;;;;;5.18;3.08;;;0.00;99.90;;;;;;10204783;23;20012;-80
2023/01/20 16:25:23;;;;;;;8.05;3.75;;;0.10;99.90;;;;;;10280867;23;20021;-76
2023/01/20 16:29:24;;;;;;;5.05;3.05;;;0.50;99.90;;;;;;10232520;23;20470;-75
2023/01/20 16:33:26;;;;;;;4.47;2.47;;;0.20;99.90;;;;;;10205029;23;20012;-78
2023/01/20 16:37:26;;;;;;;4.40;2.50;;;0.40;99.90;;;;;;10205861;23;20009;-78
2023/01/20 16:41:29;;;;;;;6.88;3.70;;;0.40;99.90;;;;;;10204530;23;20005;-78
2023/01/20 16:45:30;;;;;;;8.00;4.18;;;0.20;99.90;;;;;;10204748;23;20410;-78
2023/01/20 16:49:30;;;;;;;10.63;3.88;;;0.20;99.90;;;;;;10205214;23;20052;-79
2023/01/20 16:53:32;;;;;;;7.38;4.05;;;0.00;99.90;;;;;;10203261;23;20009;-78
2023/01/20 16:57:32;;;;;;;8.95;4.45;;;0.00;99.90;;;;;;10230616;23;20287;-79
2023/01/20 17:01:33;;;;;;;7.82;4.60;;;0.00;99.90;;;;;;10232281;23;20009;-79
2023/01/20 17:05:34;;;;;;;6.18;3.50;;;-0.20;99.90;;;;;;10206162;23;20474;-78
2023/01/20 17:09:34;;;;;;;11.20;5.30;;;-0.20;99.90;;;;;;10232151;23;20313;-78
2023/01/20 17:13:37;;;;;;;8.63;5.07;;;-0.40;99.90;;;;;;10230732;23;20005;-79
2023/01/20 17:17:38;;;;;;;11.30;5.10;;;-0.20;99.90;;;;;;10204652;23;20384;-79
2023/01/20 17:21:38;;;;;;;8.00;4.22;;;-0.40;99.90;;;;;;10204539;23;20064;-79
2023/01/20 17:25:39;;;;;;;9.55;5.40;;;-0.70;99.90;;;;;;10232196;23;20001;-79
2023/01/20 17:29:39;;;;;;;10.35;5.38;;;-0.70;99.90;;;;;;10209215;23;20060;-79
2023/01/20 17:33:46;;;;;;;8.00;5.07;;;-0.70;99.90;;;;;;10209586;23;20009;-79
2023/01/20 17:37:47;;;;;;;10.02;4.97;;;-1.00;99.90;;;;;;10210616;23;20020;-78
2023/01/20 17:41:47;;;;;;;8.73;4.10;;;-1.10;99.90;;;;;;10209004;23;20009;-80
2023/01/20 17:45:48;;;;;;;19.83;5.70;;;-1.40;99.90;;;;;;10208626;23;20052;-80
2023/01/20 17:49:49;;;;;;;8.98;4.75;;;-1.60;99.90;;;;;;10209414;23;20443;-80
2023/01/20 17:53:50;;;;;;;9.05;5.00;;;-1.80;99.90;;;;;;10234950;23;20005;-80
2023/01/20 17:57:50;;;;;;;9.40;5.10;;;-1.80;99.90;;;;;;10234029;23;20451;-80
2023/01/20 18:01:51;;;;;;;9.50;5.05;;;-2.00;99.90;;;;;;10206858;23;20383;-80
2023/01/20 18:05:53;;;;;;;12.48;5.40;;;-2.10;99.90;;;;;;10206582;23;20068;-79
2023/01/20 18:09:54;;;;;;;9.32;5.50;;;-2.00;99.90;;;;;;10232445;23;19998;-79
2023/01/20 18:13:56;;;;;;;12.20;5.85;;;-2.30;99.90;;;;;;10206059;23;20009;-80
2023/01/20 18:17:56;;;;;;;13.00;5.35;;;-2.40;99.90;;;;;;10208824;23;20144;-79
2023/01/20 18:21:59;;;;;;;11.10;5.93;;;-2.50;99.90;;;;;;10236905;23;20009;-79
2023/01/20 18:25:59;;;;;;;9.90;5.47;;;-2.60;99.90;;;;;;10209866;23;20396;-79
2023/01/20 18:30:00;;;;;;;9.20;5.47;;;-2.80;99.90;;;;;;10209663;23;20005;-80
2023/01/20 18:34:05;;;;;;;11.10;5.35;;;-2.80;99.90;;;;;;10210192;23;20005;-80
2023/01/20 18:38:06;;;;;;;12.38;5.60;;;-3.10;99.90;;;;;;10208692;23;20012;-81
2023/01/20 18:42:07;;;;;;;14.50;6.35;;;-3.20;99.90;;;;;;10210564;23;20104;-81
2023/01/20 18:46:08;;;;;;;11.48;6.25;;;-3.30;99.90;;;;;;10236760;23;20080;-80
2023/01/20 18:50:09;;;;;;;13.35;5.88;;;-3.30;99.90;;;;;;10209076;23;20013;-79
2023/01/20 18:54:13;;;;;;;11.77;5.47;;;-3.40;99.90;;;;;;10233961;23;20009;-80
2023/01/20 18:58:16;;;;;;;9.35;5.55;;;-3.40;99.90;;;;;;10208508;23;20017;-80
2023/01/20 19:02:16;;;;;;;11.82;6.63;;;-3.20;99.90;;;;;;10207154;23;20011;-81
2023/01/20 19:06:20;;;;;;;16.25;7.88;;;-3.40;99.90;;;;;;10208504;23;20005;-80
2023/01/20 19:10:20;;;;;;;11.02;6.03;;;-3.50;99.90;;;;;;10208402;23;20036;-79
2023/01/20 19:14:21;;;;;;;8.77;4.70;;;-3.40;99.90;;;;;;10233864;23;20001;-79
2023/01/20 19:18:22;;;;;;;13.30;7.00;;;-3.40;99.90;;;;;;10209222;23;20020;-79
2023/01/20 19:22:23;;;;;;;12.70;6.55;;;-3.60;99.90;;;;;;10232518;23;20016;-81
2023/01/20 19:26:25;;;;;;;11.13;6.65;;;-3.70;99.90;;;;;;10231807;23;20476;-80
2023/01/20 19:30:25;;;;;;;16.73;7.07;;;-4.00;99.90;;;;;;10207331;23;20033;-81
2023/01/20 19:34:26;;;;;;;11.55;6.15;;;-4.10;99.90;;;;;;10206378;23;20013;-80
2023/01/20 19:38:27;;;;;;;8.98;5.55;;;-4.00;99.90;;;;;;10236194;23;20001;-78
2023/01/20 19:42:28;;;;;;;13.68;6.93;;;-3.60;99.90;;;;;;10237556;23;20340;-81
2023/01/20 19:46:31;;;;;;;8.00;4.95;;;-3.50;99.90;;;;;;10237791;23;20001;-80
2023/01/20 19:50:32;;;;;;;10.13;5.38;;;-3.60;99.90;;;;;;10209654;23;20029;-81
2023/01/20 19:54:33;;;;;;;9.93;5.60;;;-3.80;99.90;;;;;;10211151;23;20351;-79
2023/01/20 19:58:34;;;;;;;14.45;6.28;;;-4.00;99.90;;;;;;10209658;23;20148;-80
2023/01/20 20:02:35;;;;;;;14.88;6.65;;;-4.10;99.90;;;;;;10240971;23;20005;-80
2023/01/20 20:06:42;;;;;;;14.15;6.10;;;-4.00;99.90;;;;;;10212613;23;20410;-80
2023/01/20 20:10:42;;;;;;;10.38;5.13;;;-4.10;99.90;;;;;;10212663;23;20001;-81
2023/01/20 20:14:43;;;;;;;12.27;7.30;;;-4.00;99.90;;;;;;10212948;23;20001;-81
2023/01/20 20:18:48;;;;;;;7.78;4.18;;;-3.90;99.90;;;;;;10209660;23;20039;-81
2023/01/20 20:22:49;;;;;;;11.50;5.63;;;-3.80;99.90;;;;;;10238754;23;20001;-80
2023/01/20 20:26:49;;;;;;;3.92;2.08;;;-3.30;99.90;;;;;;10212331;23;20020;-80
2023/01/20 20:30:51;;;;;;;12.82;5.65;;;-3.10;99.90;;;;;;10210563;23;20024;-80
2023/01/20 20:34:51;;;;;;;16.40;6.30;;;-3.00;99.90;;;;;;10212419;23;20031;-81
2023/01/20 20:38:52;;;;;;;12.73;5.40;;;-3.30;99.90;;;;;;10212702;23;20328;-79
2023/01/20 20:42:55;;;;;;;9.75;5.57;;;-3.40;99.90;;;;;;10211332;23;20012;-80
2023/01/20 20:46:55;;;;;;;12.70;5.88;;;-3.30;99.90;;;;;;10210437;23;20009;-81
2023/01/20 20:50:56;;;;;;;11.82;5.60;;;-3.20;99.90;;;;;;10213032;23;20348;-80
2023/01/20 20:54:56;;;;;;;14.05;6.75;;;-3.20;99.90;;;;;;10211920;23;20005;-80
2023/01/20 20:58:59;;;;;;;11.52;6.47;;;-3.30;99.90;;;;;;10240089;23;20001;-80
2023/01/20 21:02:59;;;;;;;14.88;6.68;;;-3.30;99.90;;;;;;10244447;23;20005;-80
2023/01/20 21:07:00;;;;;;;19.08;7.68;;;-3.30;99.90;;;;;;10243447;23;20075;-80
2023/01/20 21:11:02;;;;;;;13.90;6.50;;;-3.20;99.90;;;;;;10215665;23;20403;-80